Alden, Michigan
Current Conditions -  °F | °C
As of 3:34 AM on Saturday 20 Dec 2014 (Local Time) from KACB Reporting Station
Overcast Overcast  
Wind Chill: 24°   Ceiling: 2300
Heat Index: 24°   Visibility: 10mi
Dew Point: 21°   Wind: 0mph
Humidity: 90%   Direction: NA
Pressure: 30.28"   Gusts: NA
Location:  44.88°N, 85.28°W
Report Text: KACB 200834Z AUTO 00000KT 10SM OVC023 M04/M06 A3028 RMK AO2 T10451059
Loading
Personal Weather Stations






























Interactive Weather Map New forecast layout! Learn more

10-Day Weather Forecast

Advertisements
Track Severe Weather on mobile